Time;durP1;ratioP1;P1;durP2;ratioP2;P2;SDS_P1;SDS_P2;PMS_P1;PMS_P2;Temp;Humidity;BMP_temperature;BMP_pressure;BME280_temperature;BME280_humidity;BME280_pressure;Samples;Min_cycle;Max_cycle;Signal;HPM_P1;HPM_P2
2022/05/25 00:01:34;;;;;;;5.93;2.42;;;16.20;81.50;;;;;;4994792;28;20368;-68
2022/05/25 00:04:00;;;;;;;3.47;2.22;;;16.20;81.60;;;;;;4994147;28;20033;-68
2022/05/25 00:06:26;;;;;;;4.97;2.30;;;16.10;81.60;;;;;;4994613;28;20102;-68
2022/05/25 00:08:53;;;;;;;10.18;2.30;;;16.10;81.60;;;;;;4994696;28;20034;-68
2022/05/25 00:11:19;;;;;;;3.38;2.17;;;16.10;81.70;;;;;;4993759;28;20073;-68
2022/05/25 00:13:44;;;;;;;3.47;2.35;;;16.00;81.70;;;;;;4994455;28;20567;-68
2022/05/25 00:16:10;;;;;;;4.63;2.15;;;16.00;81.80;;;;;;4994728;28;20394;-68
2022/05/25 00:18:36;;;;;;;4.65;2.10;;;16.00;81.90;;;;;;4993528;28;20041;-68
2022/05/25 00:21:03;;;;;;;5.78;2.28;;;16.00;81.90;;;;;;4994668;28;20117;-68
2022/05/25 00:23:28;;;;;;;3.67;2.45;;;15.90;82.00;;;;;;4994802;28;20089;-69
2022/05/25 00:25:55;;;;;;;2.60;2.08;;;15.90;82.00;;;;;;4993705;28;20027;-68
2022/05/25 00:28:20;;;;;;;4.95;2.22;;;15.90;82.10;;;;;;4994249;28;20034;-68
2022/05/25 00:30:47;;;;;;;2.90;1.95;;;15.80;82.10;;;;;;4994210;28;20045;-68
2022/05/25 00:33:12;;;;;;;6.13;2.20;;;15.80;82.10;;;;;;4993233;28;20035;-68
2022/05/25 00:35:39;;;;;;;2.25;2.05;;;15.80;82.20;;;;;;4994074;28;20046;-68
2022/05/25 00:38:07;;;;;;;5.32;2.30;;;15.80;82.20;;;;;;4994072;28;20045;-68
2022/05/25 00:40:35;;;;;;;4.10;2.08;;;15.70;82.20;;;;;;4993297;28;20030;-68
2022/05/25 00:43:01;;;;;;;3.65;2.20;;;15.70;82.20;;;;;;4994123;28;20062;-68
2022/05/25 00:45:31;;;;;;;3.53;2.42;;;15.60;82.20;;;;;;4993773;28;20108;-68
2022/05/25 00:47:57;;;;;;;7.20;2.40;;;15.60;82.40;;;;;;4993055;28;20034;-68
2022/05/25 00:50:24;;;;;;;4.25;2.47;;;15.50;82.40;;;;;;4993357;28;20034;-68
2022/05/25 00:52:51;;;;;;;5.85;2.50;;;15.50;82.50;;;;;;4993718;28;20061;-68
2022/05/25 00:55:27;;;;;;;5.88;2.75;;;15.50;82.60;;;;;;4993134;28;20058;-68
2022/05/25 00:57:57;;;;;;;4.93;2.60;;;15.50;82.70;;;;;;4993750;28;20062;-68
2022/05/25 01:00:25;;;;;;;3.58;2.50;;;15.40;82.50;;;;;;4992766;28;20026;-68
2022/05/25 01:02:57;;;;;;;4.25;2.45;;;15.40;82.60;;;;;;4993790;28;20493;-68
2022/05/25 01:05:32;;;;;;;8.07;2.33;;;15.30;82.60;;;;;;4993739;28;20031;-68
2022/05/25 01:08:12;;;;;;;6.60;3.00;;;15.40;82.80;;;;;;4983712;28;20034;-68
2022/05/25 01:11:08;;;;;;;7.40;2.75;;;15.30;82.80;;;;;;4993177;28;20550;-68
2022/05/25 01:14:05;;;;;;;5.55;2.67;;;15.30;82.90;;;;;;4993198;28;20045;-68
2022/05/25 01:16:42;;;;;;;4.32;2.90;;;15.20;82.90;;;;;;4991540;28;20078;-68
2022/05/25 01:19:11;;;;;;;3.83;2.75;;;15.20;82.90;;;;;;4993367;28;20029;-68
2022/05/25 01:21:44;;;;;;;6.90;2.92;;;15.20;83.00;;;;;;4993103;28;20053;-68
2022/05/25 01:24:29;;;;;;;6.00;3.17;;;15.20;83.20;;;;;;4991453;28;20027;-68
2022/05/25 01:27:13;;;;;;;6.13;3.13;;;15.20;83.40;;;;;;4993096;28;20041;-68
2022/05/25 01:29:50;;;;;;;;;;;15.10;83.40;;;;;;4993296;28;20096;-68
2022/05/25 01:32:31;;;;;;;5.22;3.10;;;15.10;83.20;;;;;;4992940;28;20444;-68
2022/05/25 01:35:30;;;;;;;6.72;3.13;;;15.10;83.30;;;;;;4993269;28;20057;-68
2022/05/25 01:38:04;;;;;;;5.43;3.10;;;15.10;83.50;;;;;;4992855;28;20390;-68
2022/05/25 01:40:51;;;;;;;7.88;3.30;;;15.10;83.50;;;;;;4991907;28;20384;-68
2022/05/25 01:43:22;;;;;;;6.93;3.55;;;15.00;83.60;;;;;;4978554;28;20112;-68
2022/05/25 01:46:00;;;;;;;5.32;3.83;;;15.00;83.60;;;;;;4989193;28;20490;-68
2022/05/25 01:48:27;;;;;;;9.40;3.58;;;15.00;83.90;;;;;;4990556;28;20030;-68
2022/05/25 01:51:06;;;;;;;5.75;3.20;;;15.00;83.80;;;;;;4990767;28;20097;-68
2022/05/25 01:53:35;;;;;;;4.20;3.30;;;15.00;83.80;;;;;;4993192;28;20061;-68
2022/05/25 01:56:05;;;;;;;5.10;2.80;;;14.90;83.60;;;;;;4987741;28;20050;-68
2022/05/25 01:58:36;;;;;;;4.63;3.17;;;14.90;83.60;;;;;;4992377;28;20049;-68
2022/05/25 02:01:05;;;;;;;6.35;3.08;;;14.90;83.60;;;;;;4983699;28;20092;-68
2022/05/25 02:06:18;;;;;;;5.40;3.53;;;14.80;83.70;;;;;;4986989;28;20061;-68
2022/05/25 02:09:02;;;;;;;5.82;3.92;;;14.80;83.60;;;;;;4991645;28;20026;-68
2022/05/25 02:11:31;;;;;;;;;;;14.80;83.80;;;;;;4996242;28;20077;-68
2022/05/25 02:14:25;;;;;;;6.95;3.78;;;14.70;83.50;;;;;;4996166;28;19952;-68
2022/05/25 02:17:03;;;;;;;;;;;14.80;84.40;;;;;;4995488;28;20026;-68
2022/05/25 02:19:34;;;;;;;6.68;3.78;;;14.80;83.60;;;;;;4995141;28;19910;-69
2022/05/25 02:22:10;;;;;;;8.48;3.75;;;14.70;83.50;;;;;;4996283;28;20046;-68
2022/05/25 02:24:51;;;;;;;7.45;3.63;;;14.70;83.90;;;;;;4995270;28;20057;-68
2022/05/25 02:28:09;;;;;;;7.25;3.72;;;14.70;84.00;;;;;;4994383;28;20065;-68
2022/05/25 02:30:39;;;;;;;7.70;4.13;;;14.70;84.10;;;;;;4992459;28;20439;-68
2022/05/25 02:33:05;;;;;;;8.60;4.22;;;14.70;84.00;;;;;;4994712;28;20026;-68
2022/05/25 02:35:33;;;;;;;11.60;4.30;;;14.60;84.00;;;;;;4995353;28;20030;-68
2022/05/25 02:38:02;;;;;;;7.35;4.50;;;14.60;84.10;;;;;;4995396;28;20034;-68
2022/05/25 02:40:28;;;;;;;5.68;3.75;;;14.60;84.30;;;;;;4993125;28;20045;-68
2022/05/25 02:42:54;;;;;;;9.52;4.10;;;14.60;84.20;;;;;;4996551;28;20030;-68
2022/05/25 02:45:20;;;;;;;5.82;4.10;;;14.60;84.20;;;;;;4996336;28;20125;-68
2022/05/25 02:47:46;;;;;;;7.35;4.60;;;14.50;84.10;;;;;;4995721;28;20197;-68
2022/05/25 02:50:12;;;;;;;6.80;4.35;;;14.50;84.20;;;;;;4996234;28;20061;-68
2022/05/25 02:52:37;;;;;;;8.80;5.07;;;14.50;84.20;;;;;;4995461;28;20043;-68
2022/05/25 02:55:05;;;;;;;7.82;5.07;;;14.50;84.40;;;;;;4996200;28;20065;-68
2022/05/25 02:57:32;;;;;;;6.47;4.13;;;14.50;84.50;;;;;;4995700;28;20117;-68
2022/05/25 02:59:57;;;;;;;7.22;4.53;;;14.40;84.50;;;;;;4995419;28;20078;-68
2022/05/25 03:02:23;;;;;;;7.20;4.97;;;14.40;84.50;;;;;;4995843;28;20394;-68
2022/05/25 03:04:49;;;;;;;8.88;5.03;;;14.40;84.60;;;;;;4995977;28;20045;-68
2022/05/25 03:07:15;;;;;;;7.93;4.88;;;14.40;84.70;;;;;;4994851;28;20073;-68
2022/05/25 03:09:40;;;;;;;7.53;5.38;;;14.30;84.70;;;;;;4994792;28;20038;-68
2022/05/25 03:12:08;;;;;;;8.80;5.53;;;14.30;84.80;;;;;;4994557;28;20038;-68
2022/05/25 03:14:36;;;;;;;9.32;5.72;;;14.30;85.00;;;;;;4993629;28;20034;-68
2022/05/25 03:17:10;;;;;;;9.55;5.75;;;14.30;85.20;;;;;;4994878;28;20037;-68
2022/05/25 03:19:43;;;;;;;12.77;5.95;;;14.30;85.90;;;;;;4994635;28;20529;-69
2022/05/25 03:22:09;;;;;;;9.98;5.43;;;14.30;85.40;;;;;;4993767;28;20490;-68
2022/05/25 03:24:35;;;;;;;9.88;5.75;;;14.30;85.20;;;;;;4994175;28;20038;-68
2022/05/25 03:27:00;;;;;;;11.73;5.75;;;14.30;85.20;;;;;;4994183;28;20080;-68
2022/05/25 03:29:26;;;;;;;8.65;5.93;;;14.30;85.10;;;;;;4993996;28;20038;-68
2022/05/25 03:31:52;;;;;;;9.82;5.95;;;14.30;85.20;;;;;;4994717;28;20022;-68
2022/05/25 03:34:18;;;;;;;11.80;5.78;;;14.20;85.10;;;;;;4995354;28;20042;-68
2022/05/25 03:36:45;;;;;;;9.52;5.82;;;14.20;85.10;;;;;;4994515;28;20501;-68
2022/05/25 03:39:11;;;;;;;10.40;5.63;;;14.20;85.10;;;;;;4995403;28;20034;-68
2022/05/25 03:41:37;;;;;;;8.82;5.72;;;14.20;85.00;;;;;;4995093;28;20030;-68
2022/05/25 03:44:03;;;;;;;9.57;5.45;;;14.20;84.90;;;;;;4994504;28;20026;-69
2022/05/25 03:46:29;;;;;;;9.20;5.15;;;14.10;84.90;;;;;;4993846;28;20038;-69
2022/05/25 03:48:55;;;;;;;10.00;6.20;;;14.10;84.90;;;;;;4993394;28;20030;-68
2022/05/25 03:51:21;;;;;;;11.07;6.55;;;14.10;85.00;;;;;;4993940;28;20379;-68
2022/05/25 03:53:46;;;;;;;9.27;5.60;;;14.10;85.10;;;;;;4993915;28;20096;-68
2022/05/25 03:56:12;;;;;;;8.95;5.70;;;14.00;85.10;;;;;;4993360;28;20754;-68
2022/05/25 03:58:38;;;;;;;11.20;5.93;;;14.00;85.10;;;;;;4994259;28;20449;-68
2022/05/25 04:01:03;;;;;;;11.45;5.63;;;14.00;85.10;;;;;;4993733;28;20118;-68
2022/05/25 04:03:29;;;;;;;8.05;3.53;;;14.00;85.20;;;;;;4993064;28;20117;-68
2022/05/25 04:05:55;;;;;;;7.43;4.10;;;14.00;85.20;;;;;;4993708;28;20026;-68
2022/05/25 04:08:20;;;;;;;9.93;5.35;;;14.00;85.00;;;;;;4994937;28;20038;-66
2022/05/25 04:10:46;;;;;;;6.28;3.70;;;13.90;85.10;;;;;;4993775;28;20077;-65
2022/05/25 04:13:12;;;;;;;10.05;5.53;;;13.90;85.00;;;;;;4994669;28;20044;-66
2022/05/25 04:15:37;;;;;;;9.70;5.68;;;13.90;85.10;;;;;;4994604;28;20038;-66
2022/05/25 04:18:04;;;;;;;8.20;5.25;;;13.80;85.30;;;;;;4993766;28;20394;-66
2022/05/25 04:20:31;;;;;;;10.13;5.60;;;13.80;85.50;;;;;;4994239;28;20557;-66
2022/05/25 04:22:57;;;;;;;11.70;6.95;;;13.80;85.60;;;;;;4994306;28;20046;-66
2022/05/25 04:25:24;;;;;;;9.45;4.82;;;13.80;85.80;;;;;;4992586;28;20117;-65
2022/05/25 04:27:52;;;;;;;9.10;6.18;;;13.80;85.70;;;;;;4994347;28;20092;-69
2022/05/25 04:30:21;;;;;;;8.32;4.32;;;13.80;86.00;;;;;;4994071;28;20118;-68
2022/05/25 04:32:47;;;;;;;11.38;6.22;;;13.80;85.80;;;;;;4993418;28;20073;-68
2022/05/25 04:35:15;;;;;;;12.05;5.88;;;13.80;86.00;;;;;;4994007;28;20057;-68
2022/05/25 04:37:49;;;;;;;14.30;5.88;;;13.80;86.10;;;;;;4994072;28;20030;-68
2022/05/25 04:40:18;;;;;;;8.98;6.32;;;13.80;86.10;;;;;;4993223;28;20026;-68
2022/05/25 04:42:45;;;;;;;14.73;5.78;;;13.80;86.10;;;;;;4993851;28;20049;-68
2022/05/25 04:45:12;;;;;;;13.80;7.22;;;13.80;86.20;;;;;;4993023;28;20034;-68
2022/05/25 04:47:40;;;;;;;8.35;3.47;;;13.70;86.30;;;;;;4992996;28;20026;-68
2022/05/25 04:50:08;;;;;;;9.60;6.32;;;13.80;86.10;;;;;;4993075;28;20037;-68
2022/05/25 04:52:34;;;;;;;5.38;2.60;;;13.80;86.20;;;;;;4992479;28;20078;-68
2022/05/25 04:55:00;;;;;;;7.18;3.92;;;13.70;85.90;;;;;;4992941;28;20371;-68
2022/05/25 04:57:27;;;;;;;6.10;2.97;;;13.70;86.10;;;;;;4992622;28;20050;-68
2022/05/25 04:59:55;;;;;;;7.63;3.92;;;13.70;86.30;;;;;;4992000;28;20460;-68
2022/05/25 05:02:21;;;;;;;7.38;4.13;;;13.70;86.80;;;;;;4992608;28;20030;-68
2022/05/25 05:04:47;;;;;;;5.45;3.75;;;13.60;87.40;;;;;;4992864;28;20033;-68
2022/05/25 05:07:14;;;;;;;11.50;5.70;;;13.50;87.70;;;;;;4992535;28;20120;-68
2022/05/25 05:09:43;;;;;;;6.32;2.78;;;13.50;88.10;;;;;;4992149;28;20153;-68
2022/05/25 05:12:14;;;;;;;5.43;3.67;;;13.60;88.00;;;;;;4991538;28;20058;-68
2022/05/25 05:14:40;;;;;;;10.25;5.00;;;13.50;88.20;;;;;;4990123;28;20045;-68
2022/05/25 05:17:07;;;;;;;12.48;5.45;;;13.50;88.60;;;;;;4991002;28;20533;-69
2022/05/25 05:19:58;;;;;;;9.57;5.53;;;13.60;88.70;;;;;;4989444;28;20038;-70
2022/05/25 05:22:25;;;;;;;6.15;4.07;;;13.60;88.90;;;;;;4989151;28;20022;-67
2022/05/25 05:24:51;;;;;;;7.68;3.47;;;13.60;88.90;;;;;;4990749;28;20023;-69
2022/05/25 05:27:17;;;;;;;9.70;3.75;;;13.60;88.80;;;;;;4987617;28;20394;-69
2022/05/25 05:29:42;;;;;;;8.20;4.45;;;13.60;88.90;;;;;;4989057;28;20039;-69
2022/05/25 05:32:10;;;;;;;7.32;3.42;;;13.60;89.10;;;;;;4992318;28;20530;-69
2022/05/25 05:34:36;;;;;;;5.38;3.30;;;13.60;89.40;;;;;;4986953;28;20046;-66
2022/05/25 05:37:13;;;;;;;3.97;2.67;;;13.60;89.90;;;;;;4987992;28;20030;-69
2022/05/25 05:39:43;;;;;;;5.32;2.72;;;13.60;90.00;;;;;;4988452;28;20026;-66
2022/05/25 05:42:14;;;;;;;3.45;2.65;;;13.60;90.30;;;;;;4987553;28;20030;-68
2022/05/25 05:45:05;;;;;;;4.45;1.98;;;13.60;90.40;;;;;;4990205;28;20092;-65
2022/05/25 05:47:40;;;;;;;4.43;2.63;;;13.60;90.50;;;;;;4989176;28;20089;-67
2022/05/25 05:50:06;;;;;;;5.28;2.55;;;13.50;90.60;;;;;;4989580;28;20110;-69
2022/05/25 05:52:34;;;;;;;4.13;1.45;;;13.60;90.70;;;;;;4989370;28;20805;-69
2022/05/25 05:55:04;;;;;;;4.40;3.03;;;13.60;91.00;;;;;;4991914;28;20078;-68
2022/05/25 05:57:33;;;;;;;6.88;3.60;;;13.60;91.20;;;;;;4992594;28;20061;-69
2022/05/25 05:59:59;;;;;;;19.60;3.28;;;13.50;91.30;;;;;;4986990;28;20038;-68
2022/05/25 06:02:24;;;;;;;8.20;4.50;;;13.60;91.40;;;;;;4985918;28;20034;-70
2022/05/25 06:04:50;;;;;;;1.30;1.08;;;13.60;91.40;;;;;;4988450;28;20050;-68
2022/05/25 06:07:16;;;;;;;5.53;3.47;;;13.60;91.50;;;;;;4987802;28;20026;-69
2022/05/25 06:09:45;;;;;;;4.80;3.45;;;13.60;91.50;;;;;;4986119;28;20022;-69
2022/05/25 06:12:10;;;;;;;3.75;2.20;;;13.70;91.60;;;;;;4986437;28;20496;-70
2022/05/25 06:14:36;;;;;;;4.65;2.65;;;13.70;91.70;;;;;;4986012;28;20038;-70
2022/05/25 06:19:50;;;;;;;4.30;2.70;;;13.70;91.90;;;;;;4988829;28;20038;-68
2022/05/25 06:22:19;;;;;;;4.65;2.90;;;13.80;92.00;;;;;;4987871;28;20041;-68
2022/05/25 06:24:48;;;;;;;5.75;2.80;;;13.80;92.10;;;;;;4988894;28;20120;-68
2022/05/25 06:27:15;;;;;;;2.83;1.27;;;13.80;92.20;;;;;;4989616;28;20030;-68
2022/05/25 06:29:43;;;;;;;2.17;1.77;;;13.90;92.30;;;;;;4989528;28;20065;-69
2022/05/25 06:32:11;;;;;;;3.40;2.38;;;13.90;92.40;;;;;;4987937;28;20121;-70
2022/05/25 06:34:38;;;;;;;7.03;2.60;;;13.90;92.50;;;;;;4988101;28;20097;-69
2022/05/25 06:37:04;;;;;;;1.77;1.65;;;13.90;92.50;;;;;;4990778;28;20113;-69
2022/05/25 06:39:37;;;;;;;2.22;1.45;;;13.90;92.50;;;;;;4989108;28;20205;-69
2022/05/25 06:42:03;;;;;;;1.20;1.10;;;13.90;92.60;;;;;;4993702;28;20030;-69
2022/05/25 06:44:29;;;;;;;3.00;2.08;;;14.00;92.60;;;;;;4990757;28;20018;-70
2022/05/25 06:46:55;;;;;;;3.78;2.08;;;14.00;92.60;;;;;;4991173;28;20088;-68
2022/05/25 06:49:21;;;;;;;6.93;2.28;;;14.10;92.70;;;;;;4993784;28;20027;-68
2022/05/25 06:51:46;;;;;;;4.55;1.80;;;14.10;92.80;;;;;;4994583;28;20042;-68
2022/05/25 06:54:14;;;;;;;2.55;1.33;;;14.10;92.80;;;;;;4995460;28;20039;-68
2022/05/25 06:56:41;;;;;;;4.50;2.05;;;14.10;92.80;;;;;;4995562;28;20044;-68
2022/05/25 06:59:07;;;;;;;5.53;2.25;;;14.20;92.80;;;;;;4995913;28;20328;-68
2022/05/25 07:01:34;;;;;;;3.20;2.20;;;14.20;92.90;;;;;;4996126;28;20116;-68
2022/05/25 07:04:00;;;;;;;16.45;2.13;;;14.20;92.90;;;;;;4996073;28;20026;-68
2022/05/25 07:06:26;;;;;;;8.23;2.50;;;14.30;93.00;;;;;;4994159;28;20530;-68
2022/05/25 07:08:53;;;;;;;1.02;0.90;;;14.30;92.90;;;;;;4995442;28;20117;-68
2022/05/25 07:11:20;;;;;;;2.22;1.67;;;14.40;93.00;;;;;;4994921;28;20105;-68
2022/05/25 07:13:47;;;;;;;3.30;1.90;;;14.40;93.10;;;;;;4994765;28;20031;-68
2022/05/25 07:16:15;;;;;;;3.10;1.88;;;14.40;93.00;;;;;;4995406;28;20046;-68
2022/05/25 07:18:42;;;;;;;3.10;1.73;;;14.40;93.00;;;;;;4995851;28;20088;-68
2022/05/25 07:21:14;;;;;;;1.67;1.35;;;14.40;92.90;;;;;;4994905;28;20030;-68
2022/05/25 07:23:41;;;;;;;0.98;0.95;;;14.50;93.00;;;;;;4995311;28;20505;-68
2022/05/25 07:26:08;;;;;;;8.15;3.40;;;14.50;92.90;;;;;;4995335;28;20034;-68
2022/05/25 07:28:35;;;;;;;1.58;1.40;;;14.60;93.00;;;;;;4994393;28;20486;-68
2022/05/25 07:31:06;;;;;;;3.17;1.55;;;14.60;92.90;;;;;;4995709;28;20038;-68
2022/05/25 07:33:33;;;;;;;3.50;1.80;;;14.60;92.90;;;;;;4995286;28;20097;-68
2022/05/25 07:36:02;;;;;;;2.30;1.13;;;14.60;93.00;;;;;;4994743;28;20042;-68
2022/05/25 07:38:29;;;;;;;1.52;1.27;;;14.70;93.10;;;;;;4995134;28;20029;-68
2022/05/25 07:40:56;;;;;;;1.73;1.48;;;14.70;93.00;;;;;;4995073;28;20050;-68
2022/05/25 07:43:24;;;;;;;1.75;1.48;;;14.70;93.00;;;;;;4994597;28;20030;-68
2022/05/25 07:45:50;;;;;;;2.92;1.90;;;14.70;92.90;;;;;;4995380;28;20065;-68
2022/05/25 07:48:16;;;;;;;4.93;1.58;;;14.80;92.90;;;;;;4994400;28;20425;-68
2022/05/25 07:50:43;;;;;;;2.65;1.50;;;14.90;92.90;;;;;;4995308;28;20037;-68
2022/05/25 07:56:00;;;;;;;2.58;1.90;;;14.90;92.90;;;;;;4994303;28;20048;-68
2022/05/25 07:58:26;;;;;;;1.75;1.27;;;14.90;92.80;;;;;;4995084;28;20049;-68
2022/05/25 08:00:54;;;;;;;1.55;1.45;;;14.90;92.70;;;;;;4993629;28;20038;-68
2022/05/25 08:06:06;;;;;;;6.15;1.58;;;15.00;92.70;;;;;;4995186;28;20378;-68
2022/05/25 08:08:31;;;;;;;4.65;1.33;;;15.00;92.60;;;;;;4994740;28;20037;-68
2022/05/25 08:11:24;;;;;;;3.05;1.92;;;15.10;92.70;;;;;;4993796;28;20046;-68
2022/05/25 08:13:53;;;;;;;2.20;1.30;;;15.10;92.60;;;;;;4991762;28;20425;-68
2022/05/25 08:16:20;;;;;;;1.38;1.23;;;15.10;92.70;;;;;;4993669;28;20486;-68
2022/05/25 08:18:46;;;;;;;0.80;0.80;;;15.20;92.60;;;;;;4994892;28;20033;-68
2022/05/25 08:21:11;;;;;;;1.65;1.30;;;15.20;92.50;;;;;;4994158;28;20031;-68
2022/05/25 08:23:37;;;;;;;1.42;1.33;;;15.20;92.30;;;;;;4993737;28;20030;-68
2022/05/25 08:26:03;;;;;;;4.28;2.05;;;15.30;92.40;;;;;;4993993;28;20081;-68
2022/05/25 08:28:29;;;;;;;7.50;1.90;;;15.30;92.30;;;;;;4994015;28;20026;-68
2022/05/25 08:30:54;;;;;;;2.78;1.92;;;15.30;92.30;;;;;;4993829;28;20180;-68
2022/05/25 08:33:22;;;;;;;2.28;1.77;;;15.40;92.30;;;;;;4994101;28;20493;-68
2022/05/25 08:35:48;;;;;;;2.25;1.80;;;15.40;92.20;;;;;;4994193;28;20085;-68
2022/05/25 08:38:15;;;;;;;4.07;1.90;;;15.40;92.20;;;;;;4993233;28;20029;-68
2022/05/25 08:40:47;;;;;;;2.10;1.80;;;15.50;92.40;;;;;;4994252;28;20050;-68
2022/05/25 08:43:19;;;;;;;2.10;1.60;;;15.50;92.40;;;;;;4993642;28;20033;-68
2022/05/25 08:45:51;;;;;;;1.10;1.02;;;15.60;92.50;;;;;;4993369;28;20042;-68
2022/05/25 08:48:19;;;;;;;2.28;1.60;;;15.60;92.40;;;;;;4994324;28;20035;-68
2022/05/25 08:50:50;;;;;;;1.80;1.45;;;15.70;92.40;;;;;;4993870;28;20497;-68
2022/05/25 08:53:18;;;;;;;2.85;1.55;;;15.70;92.40;;;;;;4993307;28;20053;-68
2022/05/25 08:56:26;;;;;;;1.48;1.38;;;15.70;92.40;;;;;;4993744;28;20044;-68
2022/05/25 08:59:15;;;;;;;3.10;1.55;;;15.80;92.40;;;;;;4992889;28;20037;-68
2022/05/25 09:01:47;;;;;;;1.27;1.17;;;15.80;92.10;;;;;;4977737;28;20053;-68
2022/05/25 09:04:29;;;;;;;5.07;2.30;;;15.90;91.90;;;;;;4993441;28;20074;-68
2022/05/25 09:07:13;;;;;;;2.70;1.73;;;15.90;91.90;;;;;;4992915;28;20036;-68
2022/05/25 09:09:48;;;;;;;3.42;1.70;;;16.00;92.00;;;;;;4993517;28;20018;-68
2022/05/25 09:12:36;;;;;;;6.07;1.75;;;16.10;91.90;;;;;;4993552;28;20038;-68
2022/05/25 09:15:10;;;;;;;1.75;1.35;;;16.10;91.80;;;;;;4993535;28;20042;-68
2022/05/25 09:17:46;;;;;;;;;;;16.10;91.80;;;;;;4994126;28;20038;-68
2022/05/25 09:20:16;;;;;;;2.20;1.52;;;16.20;91.70;;;;;;4992407;28;19910;-68
2022/05/25 09:22:42;;;;;;;5.57;1.70;;;16.30;91.90;;;;;;4993476;28;20030;-68
2022/05/25 09:25:12;;;;;;;1.20;1.08;;;16.30;91.70;;;;;;4993386;28;20033;-68
2022/05/25 09:27:45;;;;;;;3.13;1.65;;;16.30;91.40;;;;;;4992389;28;20121;-68
2022/05/25 09:30:13;;;;;;;0.73;0.73;;;16.40;91.30;;;;;;4993280;28;20022;-68
2022/05/25 09:33:03;;;;;;;4.07;2.00;;;16.40;91.20;;;;;;4993667;28;20041;-68
2022/05/25 09:35:34;;;;;;;1.75;1.27;;;16.50;91.10;;;;;;4992609;28;20050;-66
2022/05/25 09:38:03;;;;;;;4.40;1.90;;;16.50;91.10;;;;;;4993395;28;20130;-66
2022/05/25 09:40:50;;;;;;;5.05;1.98;;;16.60;91.20;;;;;;4993312;28;20041;-65
2022/05/25 09:43:22;;;;;;;1.13;1.02;;;16.70;91.00;;;;;;4992169;28;20022;-67
2022/05/25 09:45:50;;;;;;;2.35;1.02;;;16.70;90.90;;;;;;4990009;28;20036;-66
2022/05/25 09:48:22;;;;;;;2.67;1.70;;;16.80;90.90;;;;;;4991192;28;20557;-66
2022/05/25 09:51:17;;;;;;;3.30;1.30;;;16.80;90.90;;;;;;4991851;28;20482;-67
2022/05/25 09:53:50;;;;;;;2.10;1.52;;;16.90;91.00;;;;;;4993056;28;20026;-67
2022/05/25 09:56:51;;;;;;;1.27;1.10;;;16.90;90.90;;;;;;4992157;28;20520;-67
2022/05/25 09:59:39;;;;;;;1.02;0.70;;;17.10;91.00;;;;;;4975270;28;20117;-67
2022/05/25 10:02:28;;;;;;;1.63;1.00;;;17.20;90.90;;;;;;4991740;28;20034;-67
2022/05/25 10:04:56;;;;;;;4.38;1.80;;;17.20;90.90;;;;;;4988269;28;20069;-66
2022/05/25 10:07:35;;;;;;;2.30;1.27;;;17.20;90.60;;;;;;4992914;28;20053;-70
2022/05/25 10:10:04;;;;;;;1.58;1.40;;;17.30;90.30;;;;;;4991341;28;20034;-66
2022/05/25 10:13:19;;;;;;;2.17;1.77;;;17.30;90.20;;;;;;4991310;28;20045;-66
2022/05/25 10:15:51;;;;;;;1.00;0.95;;;17.30;90.10;;;;;;4988076;28;20065;-66
2022/05/25 10:18:38;;;;;;;2.10;1.13;;;17.30;90.00;;;;;;4992876;28;20130;-66
2022/05/25 10:21:07;;;;;;;2.70;1.42;;;17.30;90.00;;;;;;4991774;28;20045;-66
2022/05/25 10:23:33;;;;;;;1.42;1.15;;;17.40;89.70;;;;;;4993137;28;20494;-66
2022/05/25 10:26:12;;;;;;;1.52;1.42;;;17.50;89.60;;;;;;4996411;28;20069;-66
2022/05/25 10:28:58;;;;;;;2.60;1.00;;;17.60;89.80;;;;;;4996430;28;20426;-66
2022/05/25 10:36:58;;;;;;;1.25;1.17;;;17.70;88.90;;;;;;4994639;28;20433;-67
2022/05/25 10:39:30;;;;;;;4.88;1.88;;;17.80;88.90;;;;;;4995141;28;20022;-67
2022/05/25 10:42:11;;;;;;;11.18;1.67;;;17.80;89.00;;;;;;4994770;28;20165;-67
2022/05/25 10:44:59;;;;;;;2.85;1.40;;;17.80;88.00;;;;;;4994177;28;20036;-66
2022/05/25 10:47:43;;;;;;;3.47;1.50;;;17.90;87.30;;;;;;4994546;28;20026;-68
2022/05/25 10:50:16;;;;;;;1.42;1.10;;;17.90;87.20;;;;;;4995717;28;20398;-68
2022/05/25 10:52:48;;;;;;;5.47;1.58;;;17.90;87.00;;;;;;4994730;28;20088;-68
2022/05/25 10:55:14;;;;;;;2.45;1.60;;;17.90;87.00;;;;;;4995561;28;20390;-68
2022/05/25 10:57:57;;;;;;;2.47;1.40;;;18.00;87.30;;;;;;4995613;28;20026;-68
2022/05/25 11:00:42;;;;;;;1.98;1.48;;;17.90;86.90;;;;;;4994459;28;20031;-68
2022/05/25 11:03:31;;;;;;;2.22;1.55;;;18.00;87.10;;;;;;4995674;28;20042;-68
2022/05/25 11:06:37;;;;;;;2.78;1.88;;;18.00;87.10;;;;;;4994901;28;20504;-68
2022/05/25 11:09:12;;;;;;;2.42;1.50;;;18.10;87.30;;;;;;4994305;28;20038;-69
2022/05/25 11:12:19;;;;;;;2.70;1.23;;;18.10;87.00;;;;;;4994840;28;20490;-68
2022/05/25 11:15:23;;;;;;;1.33;1.17;;;18.20;86.80;;;;;;4995600;28;20053;-68
2022/05/25 11:18:00;;;;;;;1.88;1.67;;;18.20;86.40;;;;;;4985789;28;20034;-68
2022/05/25 11:20:44;;;;;;;1.52;1.20;;;18.30;86.30;;;;;;4994865;28;20030;-68
2022/05/25 11:23:48;;;;;;;1.30;1.20;;;18.20;85.90;;;;;;4995553;28;20092;-68
2022/05/25 11:26:46;;;;;;;6.47;2.60;;;18.30;86.20;;;;;;4994630;28;20052;-68
2022/05/25 11:29:36;;;;;;;3.28;1.95;;;18.30;87.30;;;;;;4983865;28;20121;-68
2022/05/25 11:32:23;;;;;;;1.55;0.88;;;18.00;88.00;;;;;;4995255;28;20030;-68
2022/05/25 11:34:58;;;;;;;0.63;0.63;;;17.90;88.70;;;;;;4994569;28;20047;-68
2022/05/25 11:37:51;;;;;;;3.00;1.50;;;17.90;89.20;;;;;;4995323;28;20066;-68
2022/05/25 11:40:43;;;;;;;4.97;1.70;;;18.00;89.50;;;;;;4982123;28;20041;-68
2022/05/25 11:43:12;;;;;;;0.70;0.70;;;18.00;89.70;;;;;;4995216;28;20378;-68
2022/05/25 11:46:05;;;;;;;7.43;1.38;;;18.00;89.90;;;;;;4995123;28;20486;-68
2022/05/25 11:48:46;;;;;;;1.33;1.17;;;18.00;89.70;;;;;;4992780;28;20026;-69
2022/05/25 11:51:47;;;;;;;2.05;1.20;;;18.10;89.50;;;;;;4992621;28;20137;-69
2022/05/25 11:54:59;;;;;;;2.08;1.40;;;18.10;89.40;;;;;;4991716;28;20413;-70
2022/05/25 11:57:52;;;;;;;4.68;1.58;;;18.20;89.30;;;;;;4990803;28;20050;-68
2022/05/25 12:00:53;;;;;;;1.27;1.15;;;18.30;89.10;;;;;;4993867;28;20033;-70
2022/05/25 12:03:46;;;;;;;2.38;1.83;;;18.30;89.30;;;;;;4973258;28;20038;-69
2022/05/25 12:06:41;;;;;;;5.60;2.10;;;18.40;89.10;;;;;;4992800;28;20377;-68
2022/05/25 12:09:31;;;;;;;5.55;2.42;;;18.50;88.40;;;;;;4992923;28;20038;-70
2022/05/25 12:12:21;;;;;;;3.67;2.55;;;18.60;88.70;;;;;;4993289;28;20482;-67
2022/05/25 12:14:55;;;;;;;4.38;2.63;;;18.60;88.70;;;;;;4991851;28;20045;-67
2022/05/25 12:17:59;;;;;;;3.80;2.05;;;18.70;88.70;;;;;;4991396;28;20049;-67
2022/05/25 12:20:32;;;;;;;6.07;2.37;;;18.80;89.10;;;;;;4991266;28;20027;-67
2022/05/25 12:23:00;;;;;;;;;;;18.80;89.40;;;;;;4991196;28;20034;-67
2022/05/25 12:25:26;;;;;;;2.08;1.45;;;18.80;89.40;;;;;;4991157;28;20007;-66
2022/05/25 12:27:58;;;;;;;3.63;2.47;;;18.80;89.50;;;;;;4991194;28;20478;-67
2022/05/25 12:30:30;;;;;;;4.05;2.50;;;18.80;89.50;;;;;;4990984;28;20026;-67
2022/05/25 12:33:00;;;;;;;5.13;2.70;;;18.80;89.20;;;;;;4991933;28;20034;-67
2022/05/25 12:35:29;;;;;;;5.50;3.08;;;18.70;89.20;;;;;;4991872;28;20333;-67
2022/05/25 12:37:55;;;;;;;4.35;1.83;;;18.70;89.00;;;;;;4993265;28;20089;-68
2022/05/25 12:40:30;;;;;;;4.75;2.30;;;18.60;88.80;;;;;;4993946;28;20034;-68
2022/05/25 12:42:56;;;;;;;1.60;1.40;;;18.60;89.30;;;;;;4992795;28;20030;-68
2022/05/25 12:48:58;;;;;;;1.63;1.35;;;18.60;88.30;;;;;;4969861;28;20509;-68
2022/05/25 12:51:39;;;;;;;2.03;1.50;;;18.60;88.10;;;;;;4992930;28;20124;-68
2022/05/25 12:54:22;;;;;;;1.67;1.20;;;18.60;88.30;;;;;;4993791;28;20049;-68
2022/05/25 12:56:49;;;;;;;1.90;1.58;;;18.60;87.60;;;;;;4993945;28;20038;-68
2022/05/25 12:59:38;;;;;;;3.58;1.80;;;18.70;87.50;;;;;;4990065;28;20470;-68
2022/05/25 13:02:29;;;;;;;0.90;0.88;;;18.70;87.40;;;;;;4981042;28;20030;-68
2022/05/25 13:04:59;;;;;;;3.88;1.70;;;18.80;87.00;;;;;;4992375;28;20540;-68
2022/05/25 13:07:47;;;;;;;3.17;1.60;;;18.80;86.60;;;;;;4993728;28;20038;-68
2022/05/25 13:10:41;;;;;;;2.63;1.00;;;18.80;85.70;;;;;;4993549;28;20050;-68
2022/05/25 13:13:37;;;;;;;;;;;18.70;84.40;;;;;;4980335;28;20042;-68
2022/05/25 13:16:03;;;;;;;1.55;0.52;;;18.70;84.70;;;;;;4993201;28;20005;-68
2022/05/25 13:18:54;;;;;;;2.53;0.80;;;18.70;82.70;;;;;;4993604;28;20109;-68
2022/05/25 13:21:52;;;;;;;3.60;0.85;;;18.80;82.90;;;;;;4981794;28;20092;-68
2022/05/25 13:24:20;;;;;;;2.13;0.85;;;18.70;82.00;;;;;;4981190;28;20042;-69
2022/05/25 13:26:54;;;;;;;2.33;1.00;;;18.80;82.00;;;;;;4992764;28;20034;-69
2022/05/25 13:29:51;;;;;;;0.75;0.75;;;18.80;81.50;;;;;;4983231;28;20027;-68
2022/05/25 13:32:49;;;;;;;3.50;1.20;;;18.80;81.50;;;;;;4977548;28;20070;-68
2022/05/25 13:35:35;;;;;;;4.10;1.38;;;18.80;81.80;;;;;;4989918;28;20129;-68
2022/05/25 13:38:03;;;;;;;1.48;0.98;;;18.80;81.50;;;;;;4993037;28;20498;-68
2022/05/25 13:41:03;;;;;;;2.65;1.10;;;18.90;80.90;;;;;;4992682;28;20392;-68